Mercer Island, Washington
Current Conditions -  °F | °C
As of 10:53 AM on Thursday 30 Oct 2014 (Local Time) from KBFI Reporting Station
Broken Clouds Broken Clouds  
Wind Chill: 61°   Ceiling: 6500
Heat Index: 61°   Visibility: 10mi
Dew Point: 53°   Wind: 3mph
Humidity: 75%   Direction: 160°SSE
Pressure: 29.83"   Gusts: NA
Location:  47.58°N, 122.21°W
Report Text: KBFI 301753Z 16003KT 10SM BKN065 BKN095 16/12 A2983 RMK AO2 RAE34 SLP102 P0003 60007 T01610117 10161 20128 58009
Loading
Personal Weather Stations






























Interactive Weather Map
Tropical Storm Tracking
New forecast layout! Learn more

10-Day Weather Forecast

Advertisements
Track Severe Weather on mobile